createdAt,value
2022-08-26T00:01:10.432Z,101652.97
2022-08-26T00:03:36.931Z,101660.22
2022-08-26T00:06:03.539Z,101661.81
2022-08-26T00:08:29.945Z,101654.59
2022-08-26T00:10:56.356Z,101640.00
2022-08-26T00:13:26.281Z,101635.69
2022-08-26T00:15:53.518Z,101643.03
2022-08-26T00:18:22.258Z,101628.63
2022-08-26T00:20:49.692Z,101643.31
2022-08-26T00:23:16.489Z,101643.59
2022-08-26T00:25:43.282Z,101632.16
2022-08-26T00:28:10.964Z,101644.25
2022-08-26T00:30:37.932Z,101649.41
2022-08-26T00:33:06.048Z,101652.97
2022-08-26T00:35:34.635Z,101655.38
2022-08-26T00:38:02.685Z,101658.25
2022-08-26T00:40:36.594Z,101651.88
2022-08-26T00:43:09.308Z,101648.41
2022-08-26T00:45:46.928Z,101640.06
2022-08-26T00:48:17.982Z,101639.34
2022-08-26T00:50:54.324Z,101633.00
2022-08-26T00:53:24.084Z,101632.28
2022-08-26T00:56:49.429Z,101638.91
2022-08-26T00:59:17.776Z,101642.16
2022-08-26T01:01:46.067Z,101650.34
2022-08-26T01:04:17.662Z,101648.63
2022-08-26T01:06:44.855Z,101640.41
2022-08-26T01:09:11.914Z,101641.41
2022-08-26T01:11:38.730Z,101640.41
2022-08-26T01:14:06.228Z,101650.34
2022-08-26T01:16:35.481Z,101664.03
2022-08-26T01:19:23.727Z,101660.56
2022-08-26T01:21:57.048Z,101661.31
2022-08-26T01:24:27.507Z,101651.13
2022-08-26T01:26:57.813Z,101638.28
2022-08-26T01:29:25.834Z,101643.28
2022-08-26T01:31:55.780Z,101649.31
2022-08-26T01:34:35.094Z,101647.97
2022-08-26T01:37:03.053Z,101657.00
2022-08-26T01:39:31.552Z,101651.44
2022-08-26T01:41:59.209Z,101653.81
2022-08-26T01:44:36.189Z,101654.09
2022-08-26T01:47:03.421Z,101656.94
2022-08-26T01:49:35.737Z,101667.41
2022-08-26T01:52:04.403Z,101669.28
2022-08-26T01:54:32.021Z,101673.88
2022-08-26T01:56:58.812Z,101673.03
2022-08-26T01:59:25.945Z,101664.94
2022-08-26T02:01:53.164Z,101655.13
2022-08-26T02:04:29.075Z,101670.75
2022-08-26T02:06:57.129Z,101666.53
2022-08-26T02:09:25.812Z,101666.41
2022-08-26T02:11:54.249Z,101670.75
2022-08-26T02:14:44.035Z,101673.47
2022-08-26T02:17:11.282Z,101679.72
2022-08-26T02:19:40.873Z,101669.56
2022-08-26T02:22:13.778Z,101667.56
2022-08-26T02:24:54.721Z,101661.81
2022-08-26T02:27:32.195Z,101682.84
2022-08-26T02:30:11.553Z,101672.75
2022-08-26T02:32:40.221Z,101674.34
2022-08-26T02:35:09.668Z,101672.34
2022-08-26T02:37:36.195Z,101676.84
2022-08-26T02:40:04.702Z,101676.72
2022-08-26T02:42:31.146Z,101673.97
2022-08-26T02:44:57.577Z,101663.78
2022-08-26T02:47:25.463Z,101671.13
2022-08-26T02:49:55.741Z,101667.38
2022-08-26T02:52:22.166Z,101667.25
2022-08-26T02:54:49.631Z,101658.75
2022-08-26T02:57:16.914Z,101661.66
2022-08-26T02:59:43.853Z,101658.75
2022-08-26T03:02:12.195Z,101665.97
2022-08-26T03:04:39.821Z,101665.84
2022-08-26T03:07:06.976Z,101656.75
2022-08-26T03:09:33.823Z,101652.00
2022-08-26T03:12:00.291Z,101651.28
2022-08-26T03:14:27.049Z,101660.50
2022-08-26T03:16:54.426Z,101656.19
2022-08-26T03:19:22.937Z,101664.50
2022-08-26T03:21:49.992Z,101658.00
2022-08-26T03:24:19.281Z,101656.31
2022-08-26T03:26:52.455Z,101657.28
2022-08-26T03:29:37.796Z,101657.56
2022-08-26T03:32:06.073Z,101657.44
2022-08-26T03:34:32.517Z,101658.44
2022-08-26T03:36:58.981Z,101656.69
2022-08-26T03:39:25.504Z,101652.34
2022-08-26T03:41:52.395Z,101666.00
2022-08-26T03:44:19.853Z,101672.50
2022-08-26T03:46:46.340Z,101675.47
2022-08-26T03:49:13.153Z,101669.88
2022-08-26T03:51:41.632Z,101663.41
2022-08-26T03:54:09.285Z,101669.78
2022-08-26T03:56:36.748Z,101657.81
2022-08-26T03:59:04.492Z,101664.28
2022-08-26T04:01:32.123Z,101658.66
2022-08-26T04:04:00.251Z,101655.06
2022-08-26T04:06:29.060Z,101650.47
2022-08-26T04:08:57.355Z,101650.63
2022-08-26T04:11:28.436Z,101651.47
2022-08-26T04:14:01.212Z,101646.13
2022-08-26T04:16:29.480Z,101645.41
2022-08-26T04:18:57.414Z,101659.06
2022-08-26T04:21:25.323Z,101647.28
2022-08-26T04:23:53.747Z,101657.81
2022-08-26T04:26:21.914Z,101658.94
2022-08-26T04:28:49.807Z,101655.47
2022-08-26T04:31:18.197Z,101654.63
2022-08-26T04:33:47.483Z,101658.34
2022-08-26T04:36:17.425Z,101649.00
2022-08-26T04:38:46.318Z,101658.09
2022-08-26T04:41:15.614Z,101659.81
2022-08-26T04:43:45.459Z,101659.81
2022-08-26T04:46:16.018Z,101660.81
2022-08-26T04:48:42.441Z,101657.19
2022-08-26T04:51:10.047Z,101660.09
2022-08-26T04:53:37.287Z,101668.41
2022-08-26T04:56:04.619Z,101674.00
2022-08-26T04:58:31.855Z,101676.75
2022-08-26T05:00:58.453Z,101676.75
2022-08-26T05:03:27.051Z,101680.22
2022-08-26T05:05:54.425Z,101680.50
2022-08-26T05:08:22.379Z,101682.22
2022-08-26T05:10:54.567Z,101686.81
2022-08-26T05:13:25.414Z,101694.91
2022-08-26T05:15:52.531Z,101687.69
2022-08-26T05:18:22.788Z,101683.06
2022-08-26T05:20:53.963Z,101688.69
2022-08-26T05:23:23.187Z,101688.53
2022-08-26T05:25:55.785Z,101692.91
2022-08-26T05:28:26.257Z,101690.91
2022-08-26T05:30:52.839Z,101695.66
2022-08-26T05:33:20.017Z,101697.38
2022-08-26T05:35:47.263Z,101690.03
2022-08-26T05:38:21.542Z,101688.03
2022-08-26T05:40:49.503Z,101695.13
2022-08-26T05:43:20.913Z,101702.31
2022-08-26T05:45:49.785Z,101702.44
2022-08-26T05:48:19.112Z,101698.84
2022-08-26T05:50:52.495Z,101694.38
2022-08-26T05:53:21.257Z,101693.66
2022-08-26T05:55:50.326Z,101706.19
2022-08-26T05:58:22.286Z,101701.44
2022-08-26T06:01:02.285Z,101705.03
2022-08-26T06:03:29.938Z,101710.53
2022-08-26T06:05:56.695Z,101708.06
2022-08-26T06:08:24.015Z,101705.31
2022-08-26T06:10:53.847Z,101707.41
2022-08-26T06:13:23.962Z,101697.78
2022-08-26T06:15:51.487Z,101712.09
2022-08-26T06:18:32.674Z,101708.50
2022-08-26T06:20:59.684Z,101718.44
2022-08-26T06:23:47.641Z,101722.50
2022-08-26T06:26:15.995Z,101725.63
2022-08-26T06:28:45.643Z,101727.88
2022-08-26T06:31:13.593Z,101733.13
2022-08-26T06:33:40.142Z,101733.59
2022-08-26T06:36:06.863Z,101744.38
2022-08-26T06:38:33.821Z,101736.34
2022-08-26T06:41:02.998Z,101741.41
2022-08-26T06:43:29.623Z,101746.75
2022-08-26T06:46:04.999Z,101747.94
2022-08-26T06:48:31.638Z,101756.16
2022-08-26T06:51:15.949Z,101750.69
2022-08-26T06:53:46.745Z,101749.44
2022-08-26T06:56:15.643Z,101756.38
2022-08-26T06:58:42.537Z,101744.44
2022-08-26T07:01:17.236Z,101758.13
2022-08-26T07:03:45.407Z,101761.34
2022-08-26T07:06:13.838Z,101753.13
2022-08-26T07:08:40.437Z,101749.50
2022-08-26T07:11:09.066Z,101753.59
2022-08-26T07:13:37.572Z,101754.53
2022-08-26T07:16:06.162Z,101756.59
2022-08-26T07:18:35.163Z,101755.53
2022-08-26T07:21:06.025Z,101762.53
2022-08-26T07:23:33.517Z,101759.19
2022-08-26T07:26:00.177Z,101760.81
2022-08-26T07:28:26.875Z,101767.28
2022-08-26T07:30:53.293Z,101765.94
2022-08-26T07:33:19.747Z,101763.56
2022-08-26T07:35:46.198Z,101765.28
2022-08-26T07:38:13.315Z,101762.28
2022-08-26T07:40:40.950Z,101762.44
2022-08-26T07:43:09.689Z,101771.38
2022-08-26T07:45:36.742Z,101768.34
2022-08-26T07:48:03.945Z,101776.19
2022-08-26T07:50:50.219Z,101782.00
2022-08-26T07:53:18.110Z,101782.16
2022-08-26T07:55:46.247Z,101789.16
2022-08-26T07:58:12.709Z,101778.25
2022-08-26T08:00:39.259Z,101797.19
2022-08-26T08:03:06.396Z,101793.56
2022-08-26T08:05:33.979Z,101799.31
2022-08-26T08:08:26.602Z,101803.53
2022-08-26T08:10:49.422Z,101802.50
2022-08-26T08:13:16.134Z,101795.84
2022-08-26T08:15:43.023Z,101794.91
2022-08-26T08:18:15.590Z,101796.03
2022-08-26T08:20:47.623Z,101788.00
2022-08-26T08:23:25.789Z,101797.63
2022-08-26T08:26:01.531Z,101802.81
2022-08-26T08:28:28.359Z,101797.91
2022-08-26T08:30:54.988Z,101802.84
2022-08-26T08:33:21.480Z,101800.84
2022-08-26T08:35:48.426Z,101803.28
2022-08-26T08:38:15.632Z,101796.13
2022-08-26T08:40:45.636Z,101805.00
2022-08-26T08:43:14.960Z,101808.09
2022-08-26T08:45:41.930Z,101808.66
2022-08-26T08:48:22.630Z,101809.56
2022-08-26T08:51:03.271Z,101808.66
2022-08-26T08:53:43.094Z,101804.44
2022-08-26T08:56:33.098Z,101808.66
2022-08-26T08:59:05.386Z,101810.13
2022-08-26T09:01:44.643Z,101803.53
2022-08-26T09:04:43.657Z,101816.78
2022-08-26T09:07:15.829Z,101816.66
2022-08-26T09:09:47.544Z,101817.41
2022-08-26T09:12:21.021Z,101829.72
2022-08-26T09:15:20.321Z,101823.44
2022-08-26T09:18:02.753Z,101822.69
2022-08-26T09:20:52.958Z,101834.13
2022-08-26T09:23:19.477Z,101834.50
2022-08-26T09:26:00.017Z,101837.25
2022-08-26T09:28:29.019Z,101829.03
2022-08-26T09:31:11.498Z,101826.81
2022-08-26T09:33:38.178Z,101830.75
2022-08-26T09:36:43.990Z,101826.47
2022-08-26T09:39:28.242Z,101831.72
2022-08-26T09:42:14.178Z,101832.50
2022-08-26T09:44:54.994Z,101838.09
2022-08-26T09:47:30.581Z,101839.16
2022-08-26T09:50:29.393Z,101827.44
2022-08-26T09:53:16.082Z,101830.72
2022-08-26T09:55:45.563Z,101825.66
2022-08-26T09:58:14.886Z,101835.50
2022-08-26T10:00:52.707Z,101828.13
2022-08-26T10:03:28.621Z,101828.66
2022-08-26T10:06:24.157Z,101832.63
2022-08-26T10:08:54.709Z,101834.19
2022-08-26T10:11:31.193Z,101829.88
2022-08-26T10:14:10.961Z,101825.78
2022-08-26T10:17:06.871Z,101827.06
2022-08-26T10:20:08.023Z,101822.47
2022-08-26T10:22:59.255Z,101820.31
2022-08-26T10:25:32.538Z,101818.00
2022-08-26T10:28:12.035Z,101812.91
2022-08-26T10:30:45.713Z,101813.69
2022-08-26T10:33:18.388Z,101815.50
2022-08-26T10:35:58.385Z,101817.72
2022-08-26T10:38:34.625Z,101815.59
2022-08-26T10:41:09.924Z,101824.00
2022-08-26T10:43:42.597Z,101836.94
2022-08-26T10:46:16.257Z,101829.97
2022-08-26T10:48:53.570Z,101827.25
2022-08-26T10:51:27.054Z,101820.88
2022-08-26T10:53:54.447Z,101816.56
2022-08-26T10:56:36.930Z,101806.69
2022-08-26T10:59:28.943Z,101814.16
2022-08-26T11:02:13.732Z,101828.34
2022-08-26T11:05:03.436Z,101836.81
2022-08-26T11:07:40.294Z,101830.03
2022-08-26T11:10:18.424Z,101830.81
2022-08-26T11:12:45.388Z,101825.63
2022-08-26T11:15:24.492Z,101844.22
2022-08-26T11:17:51.270Z,101829.94
2022-08-26T11:20:23.822Z,101824.31
2022-08-26T11:22:52.743Z,101820.41
2022-08-26T11:25:23.533Z,101821.16
2022-08-26T11:27:56.874Z,101821.13
2022-08-26T11:30:24.218Z,101820.00
2022-08-26T11:32:54.098Z,101829.78
2022-08-26T11:35:20.559Z,101818.09
2022-08-26T11:37:56.524Z,101822.31
2022-08-26T11:40:33.058Z,101824.47
2022-08-26T11:43:07.606Z,101826.88
2022-08-26T11:45:38.471Z,101830.63
2022-08-26T11:48:28.952Z,101822.56
2022-08-26T11:51:07.776Z,101834.50
2022-08-26T11:53:40.747Z,101822.66
2022-08-26T11:56:31.646Z,101821.47
2022-08-26T11:59:00.461Z,101822.34
2022-08-26T12:01:32.451Z,101821.31
2022-08-26T12:03:59.911Z,101817.38
2022-08-26T12:06:37.507Z,101832.16
2022-08-26T12:09:14.632Z,101823.72
2022-08-26T12:11:41.539Z,101830.69
2022-08-26T12:14:22.482Z,101830.56
2022-08-26T12:16:48.991Z,101821.16
2022-08-26T12:19:28.295Z,101829.00
2022-08-26T12:22:07.153Z,101825.16
2022-08-26T12:24:33.531Z,101824.53
2022-08-26T12:27:11.573Z,101814.13
2022-08-26T12:29:39.174Z,101819.75
2022-08-26T12:32:17.399Z,101822.50
2022-08-26T12:34:47.309Z,101830.00
2022-08-26T12:37:15.378Z,101827.41
2022-08-26T12:39:44.126Z,101832.88
2022-08-26T12:42:15.513Z,101839.34
2022-08-26T12:45:01.645Z,101835.63
2022-08-26T12:47:42.858Z,101837.50
2022-08-26T12:50:20.645Z,101842.88
2022-08-26T12:53:09.112Z,101832.28
2022-08-26T12:55:35.556Z,101828.06
2022-08-26T12:58:20.970Z,101832.22
2022-08-26T13:01:08.357Z,101843.66
2022-08-26T13:03:34.790Z,101845.03
2022-08-26T13:06:34.915Z,101844.06
2022-08-26T13:09:09.105Z,101849.41
2022-08-26T13:11:38.552Z,101835.56
2022-08-26T13:14:10.327Z,101838.84
2022-08-26T13:16:38.600Z,101844.34
2022-08-26T13:19:10.293Z,101849.47
2022-08-26T13:21:47.878Z,101846.03
2022-08-26T13:24:17.937Z,101833.44
2022-08-26T13:26:46.304Z,101845.84
2022-08-26T13:29:13.165Z,101854.19
2022-08-26T13:31:42.324Z,101849.03
2022-08-26T13:34:11.549Z,101848.16
2022-08-26T13:36:38.020Z,101843.31
2022-08-26T13:39:05.756Z,101836.53
2022-08-26T13:41:32.579Z,101843.88
2022-08-26T13:43:59.798Z,101839.53
2022-08-26T13:46:27.751Z,101835.84
2022-08-26T13:48:54.579Z,101853.00
2022-08-26T13:51:22.645Z,101839.56
2022-08-26T13:53:50.494Z,101845.44
2022-08-26T13:56:18.656Z,101850.97
2022-08-26T13:58:46.216Z,101840.72
2022-08-26T14:01:13.159Z,101843.19
2022-08-26T14:03:39.665Z,101841.03
2022-08-26T14:06:06.104Z,101842.09
2022-08-26T14:08:33.609Z,101833.50
2022-08-26T14:11:00.541Z,101833.34
2022-08-26T14:13:27.030Z,101828.50
2022-08-26T14:15:53.915Z,101819.09
2022-08-26T14:18:27.905Z,101826.56
2022-08-26T14:20:55.035Z,101819.56
2022-08-26T14:23:22.544Z,101831.38
2022-08-26T14:25:49.172Z,101814.47
2022-08-26T14:28:15.677Z,101811.41
2022-08-26T14:30:44.003Z,101821.09
2022-08-26T14:33:13.043Z,101814.59
2022-08-26T14:35:39.521Z,101815.38
2022-08-26T14:38:06.195Z,101821.28
2022-08-26T14:40:34.038Z,101815.19
2022-08-26T14:43:05.882Z,101819.19
2022-08-26T14:45:37.534Z,101816.81
2022-08-26T14:48:04.186Z,101825.41
2022-08-26T14:50:30.656Z,101832.25
2022-08-26T14:53:15.911Z,101832.84
2022-08-26T14:55:42.480Z,101826.97
2022-08-26T14:58:09.983Z,101823.91
2022-08-26T15:00:37.845Z,101817.06
2022-08-26T15:03:05.482Z,101813.88
2022-08-26T15:05:33.360Z,101821.34
2022-08-26T15:08:00.353Z,101817.00
2022-08-26T15:10:26.830Z,101823.53
2022-08-26T15:12:53.302Z,101824.28
2022-08-26T15:15:19.819Z,101824.22
2022-08-26T15:17:46.216Z,101827.38
2022-08-26T15:20:15.824Z,101824.31
2022-08-26T15:22:43.107Z,101825.06
2022-08-26T15:25:10.781Z,101818.84
2022-08-26T15:27:37.377Z,101820.16
2022-08-26T15:30:10.599Z,101818.56
2022-08-26T15:32:37.064Z,101822.47
2022-08-26T15:35:08.889Z,101820.63
2022-08-26T15:37:35.985Z,101823.03
2022-08-26T15:40:02.786Z,101823.78
2022-08-26T15:42:29.233Z,101823.19
2022-08-26T15:44:55.689Z,101817.88
2022-08-26T15:47:23.665Z,101809.03
2022-08-26T15:49:50.079Z,101815.91
2022-08-26T15:52:17.218Z,101809.56
2022-08-26T15:54:44.036Z,101823.81
2022-08-26T15:57:12.344Z,101826.31
2022-08-26T15:59:40.275Z,101820.84
2022-08-26T16:02:07.212Z,101809.44
2022-08-26T16:04:33.714Z,101815.69
2022-08-26T16:07:00.339Z,101806.03
2022-08-26T16:09:27.747Z,101810.38
2022-08-26T16:11:56.661Z,101805.84
2022-08-26T16:14:23.982Z,101810.72
2022-08-26T16:16:50.800Z,101819.88
2022-08-26T16:19:17.766Z,101807.88
2022-08-26T16:21:44.739Z,101807.28
2022-08-26T16:24:12.011Z,101804.75
2022-08-26T16:26:40.180Z,101792.47
2022-08-26T16:29:09.990Z,101798.31
2022-08-26T16:31:38.242Z,101806.53
2022-08-26T16:34:06.084Z,101794.63
2022-08-26T16:36:32.965Z,101794.06
2022-08-26T16:38:59.423Z,101801.38
2022-08-26T16:41:29.462Z,101799.88
2022-08-26T16:43:56.181Z,101797.09
2022-08-26T16:46:25.729Z,101798.88
2022-08-26T16:48:56.797Z,101803.38
2022-08-26T16:51:26.784Z,101805.56
2022-08-26T16:53:54.635Z,101798.00
2022-08-26T16:56:33.604Z,101803.50
2022-08-26T16:59:05.058Z,101796.63
2022-08-26T17:01:32.169Z,101794.84
2022-08-26T17:03:58.714Z,101798.72
2022-08-26T17:06:25.172Z,101794.75
2022-08-26T17:08:52.409Z,101799.88
2022-08-26T17:11:19.620Z,101798.34
2022-08-26T17:13:46.107Z,101790.97
2022-08-26T17:16:14.410Z,101796.09
2022-08-26T17:18:41.084Z,101803.50
2022-08-26T17:21:09.997Z,101790.28
2022-08-26T17:23:40.877Z,101806.19
2022-08-26T17:26:08.036Z,101811.88
2022-08-26T17:28:34.710Z,101790.59
2022-08-26T17:31:01.842Z,101813.56
2022-08-26T17:33:28.909Z,101810.22
2022-08-26T17:35:55.850Z,101812.94
2022-08-26T17:38:22.875Z,101811.88
2022-08-26T17:40:49.856Z,101818.63
2022-08-26T17:43:17.168Z,101821.31
2022-08-26T17:45:43.617Z,101834.34
2022-08-26T17:48:10.990Z,101827.47
2022-08-26T17:50:42.251Z,101829.38
2022-08-26T17:53:08.930Z,101828.78
2022-08-26T17:55:41.628Z,101836.66
2022-08-26T17:58:11.784Z,101831.84
2022-08-26T18:00:44.701Z,101833.38
2022-08-26T18:03:11.404Z,101834.59
2022-08-26T18:05:37.897Z,101831.91
2022-08-26T18:08:04.397Z,101838.09
2022-08-26T18:10:31.317Z,101838.47
2022-08-26T18:12:57.811Z,101831.88
2022-08-26T18:15:24.287Z,101833.22
2022-08-26T18:17:50.842Z,101838.81
2022-08-26T18:20:19.195Z,101836.69
2022-08-26T18:22:47.427Z,101833.81
2022-08-26T18:25:15.173Z,101829.84
2022-08-26T18:27:41.829Z,101836.50
2022-08-26T18:30:16.613Z,101848.16
2022-08-26T18:32:43.973Z,101846.22
2022-08-26T18:35:11.426Z,101844.84
2022-08-26T18:37:37.858Z,101845.56
2022-08-26T18:40:06.105Z,101857.03
2022-08-26T18:42:32.704Z,101850.44
2022-08-26T18:44:59.481Z,101858.31
2022-08-26T18:47:25.874Z,101854.44
2022-08-26T18:49:52.313Z,101856.50
2022-08-26T18:52:18.710Z,101856.75
2022-08-26T18:54:45.184Z,101851.63
2022-08-26T18:57:12.051Z,101856.88
2022-08-26T18:59:38.420Z,101858.25
2022-08-26T19:02:05.267Z,101855.41
2022-08-26T19:04:31.972Z,101857.72
2022-08-26T19:06:58.516Z,101856.50
2022-08-26T19:09:26.297Z,101858.03
2022-08-26T19:11:53.772Z,101845.63
2022-08-26T19:14:20.309Z,101852.91
2022-08-26T19:16:49.600Z,101858.59
2022-08-26T19:19:17.012Z,101873.84
2022-08-26T19:21:43.637Z,101873.19
2022-08-26T19:24:15.434Z,101870.06
2022-08-26T19:26:46.236Z,101870.81
2022-08-26T19:29:13.754Z,101873.09
2022-08-26T19:31:40.736Z,101876.59
2022-08-26T19:34:10.263Z,101877.78
2022-08-26T19:36:37.702Z,101876.59
2022-08-26T19:39:05.692Z,101876.28
2022-08-26T19:41:37.936Z,101875.38
2022-08-26T19:44:12.755Z,101872.44
2022-08-26T19:46:40.216Z,101869.47
2022-08-26T19:49:06.839Z,101873.38
2022-08-26T19:51:35.293Z,101875.25
2022-08-26T19:54:02.223Z,101869.59
2022-08-26T19:56:28.945Z,101865.44
2022-08-26T19:58:56.066Z,101870.91
2022-08-26T20:01:22.617Z,101870.03
2022-08-26T20:03:49.634Z,101865.03
2022-08-26T20:06:16.565Z,101873.09
2022-08-26T20:08:44.173Z,101875.38
2022-08-26T20:11:14.471Z,101876.03
2022-08-26T20:13:41.467Z,101868.31
2022-08-26T20:16:08.078Z,101870.91
2022-08-26T20:18:53.009Z,101869.16
2022-08-26T20:21:28.304Z,101870.16
2022-08-26T20:24:04.763Z,101864.38
2022-08-26T20:26:35.150Z,101869.84
2022-08-26T20:29:02.187Z,101869.81
2022-08-26T20:31:28.846Z,101872.97
2022-08-26T20:33:56.378Z,101883.97
2022-08-26T20:36:25.793Z,101885.31
2022-08-26T20:38:53.141Z,101873.44
2022-08-26T20:41:19.626Z,101876.47
2022-08-26T20:43:46.993Z,101880.06
2022-08-26T20:46:17.981Z,101881.16
2022-08-26T20:48:46.758Z,101884.63
2022-08-26T20:51:13.233Z,101876.56
2022-08-26T20:53:39.726Z,101881.78
2022-08-26T20:56:09.183Z,101873.38
2022-08-26T20:58:36.455Z,101865.34
2022-08-26T21:01:07.501Z,101870.34
2022-08-26T21:03:36.024Z,101868.06
2022-08-26T21:06:03.506Z,101872.72
2022-08-26T21:08:29.954Z,101876.63
2022-08-26T21:10:59.589Z,101871.28
2022-08-26T21:13:26.080Z,101876.47
2022-08-26T21:15:56.401Z,101876.66
2022-08-26T21:18:22.813Z,101876.19
2022-08-26T21:20:51.465Z,101871.16
2022-08-26T21:23:18.709Z,101869.72
2022-08-26T21:25:46.377Z,101865.25
2022-08-26T21:28:12.874Z,101868.81
2022-08-26T21:30:40.889Z,101872.03
2022-08-26T21:33:08.147Z,101872.84
2022-08-26T21:35:34.739Z,101876.84
2022-08-26T21:38:01.360Z,101863.25
2022-08-26T21:40:28.041Z,101879.00
2022-08-26T21:42:54.568Z,101869.69
2022-08-26T21:45:21.002Z,101877.03
2022-08-26T21:47:47.369Z,101883.28
2022-08-26T21:50:13.847Z,101879.00
2022-08-26T21:52:40.301Z,101877.75
2022-08-26T21:55:09.116Z,101888.31
2022-08-26T21:57:38.042Z,101888.91
2022-08-26T22:00:08.333Z,101889.22
2022-08-26T22:02:34.924Z,101885.81
2022-08-26T22:05:01.461Z,101880.97
2022-08-26T22:07:27.874Z,101877.41
2022-08-26T22:09:54.303Z,101880.81
2022-08-26T22:12:20.715Z,101878.78
2022-08-26T22:14:47.881Z,101885.31
2022-08-26T22:17:14.876Z,101874.63
2022-08-26T22:19:46.308Z,101885.50
2022-08-26T22:22:14.292Z,101874.44
2022-08-26T22:24:40.792Z,101874.03
2022-08-26T22:27:07.190Z,101880.25
2022-08-26T22:29:33.640Z,101877.84
2022-08-26T22:32:01.043Z,101877.84
2022-08-26T22:34:28.050Z,101870.25
2022-08-26T22:36:54.762Z,101865.41
2022-08-26T22:39:23.308Z,101873.09
2022-08-26T22:41:50.087Z,101869.38
2022-08-26T22:44:18.103Z,101874.16
2022-08-26T22:46:45.204Z,101871.94
2022-08-26T22:49:16.355Z,101873.28
2022-08-26T22:51:46.615Z,101869.19
2022-08-26T22:54:13.559Z,101868.53
2022-08-26T22:56:40.670Z,101871.44
2022-08-26T22:59:07.885Z,101868.19
2022-08-26T23:01:37.137Z,101864.88
2022-08-26T23:04:06.154Z,101867.81
2022-08-26T23:06:39.480Z,101874.19
2022-08-26T23:09:07.202Z,101868.28
2022-08-26T23:11:34.348Z,101868.75
2022-08-26T23:14:06.623Z,101863.47
2022-08-26T23:16:39.361Z,101869.13
2022-08-26T23:19:06.025Z,101871.06
2022-08-26T23:21:33.201Z,101867.72
2022-08-26T23:23:59.828Z,101864.31
2022-08-26T23:26:26.442Z,101872.75
2022-08-26T23:28:53.270Z,101869.25
2022-08-26T23:31:19.823Z,101865.75
2022-08-26T23:34:05.042Z,101864.13
2022-08-26T23:36:31.615Z,101865.16
2022-08-26T23:39:02.265Z,101865.28
2022-08-26T23:41:28.638Z,101862.63
2022-08-26T23:43:55.135Z,101866.31
2022-08-26T23:46:21.530Z,101858.25
2022-08-26T23:48:48.388Z,101861.25
2022-08-26T23:51:33.457Z,101859.50
2022-08-26T23:53:59.881Z,101857.75
2022-08-26T23:56:26.711Z,101850.75
2022-08-26T23:58:54.127Z,101858.28
